sensor_id;sensor_type;location;lat;lon;timestamp;P1;durP1;ratioP1;P2;durP2;ratioP2
4806;SDS011;2417;52.482;13.432;2023-03-23T00:00:32;9.60;;;4.43;;
4806;SDS011;2417;52.482;13.432;2023-03-23T00:02:59;7.67;;;3.20;;
4806;SDS011;2417;52.482;13.432;2023-03-23T00:05:27;6.57;;;2.90;;
4806;SDS011;2417;52.482;13.432;2023-03-23T00:07:54;7.57;;;3.40;;
4806;SDS011;2417;52.482;13.432;2023-03-23T00:10:21;9.97;;;3.10;;
4806;SDS011;2417;52.482;13.432;2023-03-23T00:12:53;7.90;;;3.07;;
4806;SDS011;2417;52.482;13.432;2023-03-23T00:15:22;10.90;;;5.07;;
4806;SDS011;2417;52.482;13.432;2023-03-23T00:17:50;10.40;;;3.60;;
4806;SDS011;2417;52.482;13.432;2023-03-23T00:20:17;11.50;;;3.60;;
4806;SDS011;2417;52.482;13.432;2023-03-23T00:22:44;8.33;;;3.80;;
4806;SDS011;2417;52.482;13.432;2023-03-23T00:25:11;10.33;;;5.47;;
4806;SDS011;2417;52.482;13.432;2023-03-23T00:27:38;14.83;;;5.90;;
4806;SDS011;2417;52.482;13.432;2023-03-23T00:30:11;10.07;;;3.50;;
4806;SDS011;2417;52.482;13.432;2023-03-23T00:32:37;7.70;;;3.57;;
4806;SDS011;2417;52.482;13.432;2023-03-23T00:35:05;7.30;;;3.80;;
4806;SDS011;2417;52.482;13.432;2023-03-23T00:37:32;7.13;;;3.27;;
4806;SDS011;2417;52.482;13.432;2023-03-23T00:40:01;8.23;;;3.10;;
4806;SDS011;2417;52.482;13.432;2023-03-23T00:42:32;9.47;;;3.10;;
4806;SDS011;2417;52.482;13.432;2023-03-23T00:45:02;6.90;;;2.83;;
4806;SDS011;2417;52.482;13.432;2023-03-23T00:47:37;6.77;;;3.10;;
4806;SDS011;2417;52.482;13.432;2023-03-23T00:50:04;5.30;;;2.60;;
4806;SDS011;2417;52.482;13.432;2023-03-23T00:52:31;6.70;;;3.27;;
4806;SDS011;2417;52.482;13.432;2023-03-23T00:54:59;7.70;;;3.33;;
4806;SDS011;2417;52.482;13.432;2023-03-23T00:57:25;5.50;;;2.90;;
4806;SDS011;2417;52.482;13.432;2023-03-23T00:59:52;6.23;;;3.00;;
4806;SDS011;2417;52.482;13.432;2023-03-23T01:02:19;6.17;;;2.80;;
4806;SDS011;2417;52.482;13.432;2023-03-23T01:04:51;6.57;;;3.03;;
4806;SDS011;2417;52.482;13.432;2023-03-23T01:07:18;9.03;;;4.27;;
4806;SDS011;2417;52.482;13.432;2023-03-23T01:09:46;6.53;;;3.03;;
4806;SDS011;2417;52.482;13.432;2023-03-23T01:12:13;5.30;;;2.80;;
4806;SDS011;2417;52.482;13.432;2023-03-23T01:14:41;8.27;;;3.03;;
4806;SDS011;2417;52.482;13.432;2023-03-23T01:17:08;7.70;;;3.07;;
4806;SDS011;2417;52.482;13.432;2023-03-23T01:19:35;8.40;;;3.20;;
4806;SDS011;2417;52.482;13.432;2023-03-23T01:22:04;10.40;;;3.50;;
4806;SDS011;2417;52.482;13.432;2023-03-23T01:24:31;6.33;;;3.20;;
4806;SDS011;2417;52.482;13.432;2023-03-23T01:26:58;7.47;;;3.10;;
4806;SDS011;2417;52.482;13.432;2023-03-23T01:29:27;5.73;;;2.83;;
4806;SDS011;2417;52.482;13.432;2023-03-23T01:31:54;6.73;;;3.10;;
4806;SDS011;2417;52.482;13.432;2023-03-23T01:34:21;9.07;;;3.30;;
4806;SDS011;2417;52.482;13.432;2023-03-23T01:36:48;6.60;;;3.20;;
4806;SDS011;2417;52.482;13.432;2023-03-23T01:39:18;8.33;;;3.57;;
4806;SDS011;2417;52.482;13.432;2023-03-23T01:41:44;7.23;;;3.50;;
4806;SDS011;2417;52.482;13.432;2023-03-23T01:47:06;7.57;;;3.90;;
4806;SDS011;2417;52.482;13.432;2023-03-23T01:49:35;6.17;;;2.90;;
4806;SDS011;2417;52.482;13.432;2023-03-23T01:52:04;6.93;;;3.13;;
4806;SDS011;2417;52.482;13.432;2023-03-23T01:54:33;5.87;;;2.73;;
4806;SDS011;2417;52.482;13.432;2023-03-23T01:57:02;6.70;;;3.13;;
4806;SDS011;2417;52.482;13.432;2023-03-23T01:59:31;6.90;;;3.37;;
4806;SDS011;2417;52.482;13.432;2023-03-23T02:02:13;8.10;;;4.00;;
4806;SDS011;2417;52.482;13.432;2023-03-23T02:04:42;7.10;;;3.07;;
4806;SDS011;2417;52.482;13.432;2023-03-23T02:07:10;7.00;;;3.60;;
4806;SDS011;2417;52.482;13.432;2023-03-23T02:09:39;7.27;;;3.60;;
4806;SDS011;2417;52.482;13.432;2023-03-23T02:12:06;7.40;;;3.87;;
4806;SDS011;2417;52.482;13.432;2023-03-23T02:14:35;7.63;;;3.47;;
4806;SDS011;2417;52.482;13.432;2023-03-23T02:17:03;6.47;;;3.37;;
4806;SDS011;2417;52.482;13.432;2023-03-23T02:19:39;9.23;;;3.90;;
4806;SDS011;2417;52.482;13.432;2023-03-23T02:22:22;7.00;;;3.30;;
4806;SDS011;2417;52.482;13.432;2023-03-23T02:24:59;8.43;;;3.30;;
4806;SDS011;2417;52.482;13.432;2023-03-23T02:27:43;6.37;;;3.27;;
4806;SDS011;2417;52.482;13.432;2023-03-23T02:30:14;6.97;;;3.03;;
4806;SDS011;2417;52.482;13.432;2023-03-23T02:35:29;8.47;;;4.50;;
4806;SDS011;2417;52.482;13.432;2023-03-23T02:37:58;6.53;;;3.27;;
4806;SDS011;2417;52.482;13.432;2023-03-23T02:40:27;11.10;;;4.07;;
4806;SDS011;2417;52.482;13.432;2023-03-23T02:42:57;11.23;;;4.00;;
4806;SDS011;2417;52.482;13.432;2023-03-23T02:45:25;6.23;;;3.10;;
4806;SDS011;2417;52.482;13.432;2023-03-23T02:47:54;12.17;;;4.17;;
4806;SDS011;2417;52.482;13.432;2023-03-23T02:50:22;7.27;;;3.90;;
4806;SDS011;2417;52.482;13.432;2023-03-23T02:52:52;10.30;;;3.80;;
4806;SDS011;2417;52.482;13.432;2023-03-23T02:55:20;9.60;;;3.80;;
4806;SDS011;2417;52.482;13.432;2023-03-23T02:57:48;8.83;;;3.80;;
4806;SDS011;2417;52.482;13.432;2023-03-23T03:00:17;7.70;;;4.20;;
4806;SDS011;2417;52.482;13.432;2023-03-23T03:02:44;11.73;;;6.07;;
4806;SDS011;2417;52.482;13.432;2023-03-23T03:05:15;6.27;;;3.30;;
4806;SDS011;2417;52.482;13.432;2023-03-23T03:07:47;9.33;;;4.13;;
4806;SDS011;2417;52.482;13.432;2023-03-23T03:10:22;8.40;;;4.17;;
4806;SDS011;2417;52.482;13.432;2023-03-23T03:12:52;11.50;;;3.90;;
4806;SDS011;2417;52.482;13.432;2023-03-23T03:15:22;6.83;;;3.60;;
4806;SDS011;2417;52.482;13.432;2023-03-23T03:17:51;7.67;;;3.70;;
4806;SDS011;2417;52.482;13.432;2023-03-23T03:20:19;12.53;;;6.00;;
4806;SDS011;2417;52.482;13.432;2023-03-23T03:22:47;9.17;;;3.63;;
4806;SDS011;2417;52.482;13.432;2023-03-23T03:25:14;7.90;;;4.20;;
4806;SDS011;2417;52.482;13.432;2023-03-23T03:27:45;5.83;;;3.33;;
4806;SDS011;2417;52.482;13.432;2023-03-23T03:30:21;10.00;;;5.43;;
4806;SDS011;2417;52.482;13.432;2023-03-23T03:32:51;7.13;;;3.70;;
4806;SDS011;2417;52.482;13.432;2023-03-23T03:35:21;10.43;;;4.50;;
4806;SDS011;2417;52.482;13.432;2023-03-23T03:37:50;7.40;;;3.07;;
4806;SDS011;2417;52.482;13.432;2023-03-23T03:40:18;12.20;;;3.00;;
4806;SDS011;2417;52.482;13.432;2023-03-23T03:42:47;7.97;;;3.60;;
4806;SDS011;2417;52.482;13.432;2023-03-23T03:45:15;6.33;;;2.77;;
4806;SDS011;2417;52.482;13.432;2023-03-23T03:47:42;6.93;;;3.37;;
4806;SDS011;2417;52.482;13.432;2023-03-23T03:50:10;6.93;;;3.10;;
4806;SDS011;2417;52.482;13.432;2023-03-23T03:52:37;8.30;;;3.70;;
4806;SDS011;2417;52.482;13.432;2023-03-23T03:55:06;5.63;;;3.40;;
4806;SDS011;2417;52.482;13.432;2023-03-23T03:57:34;11.83;;;4.00;;
4806;SDS011;2417;52.482;13.432;2023-03-23T04:00:07;10.80;;;5.17;;
4806;SDS011;2417;52.482;13.432;2023-03-23T04:02:43;8.33;;;3.80;;
4806;SDS011;2417;52.482;13.432;2023-03-23T04:05:14;7.00;;;4.20;;
4806;SDS011;2417;52.482;13.432;2023-03-23T04:07:43;9.00;;;4.80;;
4806;SDS011;2417;52.482;13.432;2023-03-23T04:10:11;9.10;;;5.00;;
4806;SDS011;2417;52.482;13.432;2023-03-23T04:12:41;10.77;;;4.73;;
4806;SDS011;2417;52.482;13.432;2023-03-23T04:15:39;10.87;;;6.27;;
4806;SDS011;2417;52.482;13.432;2023-03-23T04:18:06;12.53;;;7.80;;
4806;SDS011;2417;52.482;13.432;2023-03-23T04:20:34;10.77;;;6.00;;
4806;SDS011;2417;52.482;13.432;2023-03-23T04:23:03;20.40;;;9.27;;
4806;SDS011;2417;52.482;13.432;2023-03-23T04:25:32;17.70;;;9.47;;
4806;SDS011;2417;52.482;13.432;2023-03-23T04:27:59;10.63;;;6.37;;
4806;SDS011;2417;52.482;13.432;2023-03-23T04:30:32;15.53;;;9.30;;
4806;SDS011;2417;52.482;13.432;2023-03-23T04:33:02;15.03;;;8.83;;
4806;SDS011;2417;52.482;13.432;2023-03-23T04:35:29;34.07;;;7.20;;
4806;SDS011;2417;52.482;13.432;2023-03-23T04:38:12;11.73;;;7.20;;
4806;SDS011;2417;52.482;13.432;2023-03-23T04:40:42;34.57;;;17.90;;
4806;SDS011;2417;52.482;13.432;2023-03-23T04:43:25;25.73;;;14.60;;
4806;SDS011;2417;52.482;13.432;2023-03-23T04:46:03;12.40;;;6.70;;
4806;SDS011;2417;52.482;13.432;2023-03-23T04:48:36;12.93;;;6.80;;
4806;SDS011;2417;52.482;13.432;2023-03-23T04:51:12;15.80;;;8.63;;
4806;SDS011;2417;52.482;13.432;2023-03-23T04:53:41;12.07;;;6.23;;
4806;SDS011;2417;52.482;13.432;2023-03-23T04:56:12;11.50;;;6.20;;
4806;SDS011;2417;52.482;13.432;2023-03-23T04:58:43;13.67;;;6.33;;
4806;SDS011;2417;52.482;13.432;2023-03-23T05:01:45;14.27;;;7.70;;
4806;SDS011;2417;52.482;13.432;2023-03-23T05:04:19;13.40;;;5.60;;
4806;SDS011;2417;52.482;13.432;2023-03-23T05:07:10;15.03;;;7.03;;
4806;SDS011;2417;52.482;13.432;2023-03-23T05:09:46;13.20;;;6.00;;
4806;SDS011;2417;52.482;13.432;2023-03-23T05:12:14;14.80;;;6.83;;
4806;SDS011;2417;52.482;13.432;2023-03-23T05:15:02;13.57;;;4.63;;
4806;SDS011;2417;52.482;13.432;2023-03-23T05:17:31;10.00;;;4.70;;
4806;SDS011;2417;52.482;13.432;2023-03-23T05:20:02;10.20;;;4.90;;
4806;SDS011;2417;52.482;13.432;2023-03-23T05:22:40;10.50;;;4.60;;
4806;SDS011;2417;52.482;13.432;2023-03-23T05:25:11;11.87;;;5.30;;
4806;SDS011;2417;52.482;13.432;2023-03-23T05:27:43;21.90;;;5.70;;
4806;SDS011;2417;52.482;13.432;2023-03-23T05:30:43;16.60;;;4.93;;
4806;SDS011;2417;52.482;13.432;2023-03-23T05:33:12;9.87;;;4.80;;
4806;SDS011;2417;52.482;13.432;2023-03-23T05:36:01;8.20;;;4.40;;
4806;SDS011;2417;52.482;13.432;2023-03-23T05:38:34;13.93;;;4.50;;
4806;SDS011;2417;52.482;13.432;2023-03-23T05:41:03;9.67;;;5.07;;
4806;SDS011;2417;52.482;13.432;2023-03-23T05:43:36;15.43;;;4.20;;
4806;SDS011;2417;52.482;13.432;2023-03-23T05:46:41;10.47;;;4.63;;
4806;SDS011;2417;52.482;13.432;2023-03-23T05:49:09;10.77;;;4.63;;
4806;SDS011;2417;52.482;13.432;2023-03-23T05:51:40;8.00;;;4.20;;
4806;SDS011;2417;52.482;13.432;2023-03-23T05:54:07;9.70;;;4.57;;
4806;SDS011;2417;52.482;13.432;2023-03-23T05:56:35;15.03;;;4.40;;
4806;SDS011;2417;52.482;13.432;2023-03-23T05:59:15;12.57;;;4.00;;
4806;SDS011;2417;52.482;13.432;2023-03-23T06:01:45;15.60;;;4.13;;
4806;SDS011;2417;52.482;13.432;2023-03-23T06:04:12;9.47;;;3.90;;
4806;SDS011;2417;52.482;13.432;2023-03-23T06:06:56;13.67;;;4.10;;
4806;SDS011;2417;52.482;13.432;2023-03-23T06:09:23;14.20;;;4.50;;
4806;SDS011;2417;52.482;13.432;2023-03-23T06:12:08;10.80;;;3.53;;
4806;SDS011;2417;52.482;13.432;2023-03-23T06:14:53;16.20;;;3.47;;
4806;SDS011;2417;52.482;13.432;2023-03-23T06:17:27;17.40;;;4.43;;
4806;SDS011;2417;52.482;13.432;2023-03-23T06:19:54;17.80;;;4.13;;
4806;SDS011;2417;52.482;13.432;2023-03-23T06:22:23;10.20;;;4.07;;
4806;SDS011;2417;52.482;13.432;2023-03-23T06:25:12;13.97;;;3.73;;
4806;SDS011;2417;52.482;13.432;2023-03-23T06:27:43;11.43;;;4.30;;
4806;SDS011;2417;52.482;13.432;2023-03-23T06:30:12;12.13;;;4.73;;
4806;SDS011;2417;52.482;13.432;2023-03-23T06:32:41;10.70;;;3.60;;
4806;SDS011;2417;52.482;13.432;2023-03-23T06:35:12;19.90;;;4.10;;
4806;SDS011;2417;52.482;13.432;2023-03-23T06:37:55;20.33;;;4.43;;
4806;SDS011;2417;52.482;13.432;2023-03-23T06:40:34;11.73;;;3.60;;
4806;SDS011;2417;52.482;13.432;2023-03-23T06:43:03;12.43;;;3.80;;
4806;SDS011;2417;52.482;13.432;2023-03-23T06:45:45;10.83;;;4.20;;
4806;SDS011;2417;52.482;13.432;2023-03-23T06:48:34;8.87;;;4.10;;
4806;SDS011;2417;52.482;13.432;2023-03-23T06:51:04;9.20;;;4.20;;
4806;SDS011;2417;52.482;13.432;2023-03-23T06:53:33;17.50;;;4.20;;
4806;SDS011;2417;52.482;13.432;2023-03-23T06:56:00;13.27;;;4.33;;
4806;SDS011;2417;52.482;13.432;2023-03-23T06:58:28;11.77;;;5.30;;
4806;SDS011;2417;52.482;13.432;2023-03-23T07:00:55;12.83;;;5.00;;
4806;SDS011;2417;52.482;13.432;2023-03-23T07:03:30;11.53;;;4.77;;
4806;SDS011;2417;52.482;13.432;2023-03-23T07:05:58;10.23;;;5.20;;
4806;SDS011;2417;52.482;13.432;2023-03-23T07:08:29;19.37;;;5.47;;
4806;SDS011;2417;52.482;13.432;2023-03-23T07:10:57;9.87;;;4.27;;
4806;SDS011;2417;52.482;13.432;2023-03-23T07:13:26;23.80;;;5.00;;
4806;SDS011;2417;52.482;13.432;2023-03-23T07:15:59;14.90;;;5.17;;
4806;SDS011;2417;52.482;13.432;2023-03-23T07:18:27;13.40;;;4.53;;
4806;SDS011;2417;52.482;13.432;2023-03-23T07:20:56;12.20;;;4.47;;
4806;SDS011;2417;52.482;13.432;2023-03-23T07:23:28;11.33;;;4.43;;
4806;SDS011;2417;52.482;13.432;2023-03-23T07:26:19;9.80;;;4.97;;
4806;SDS011;2417;52.482;13.432;2023-03-23T07:28:51;11.47;;;5.00;;
4806;SDS011;2417;52.482;13.432;2023-03-23T07:31:30;11.73;;;4.57;;
4806;SDS011;2417;52.482;13.432;2023-03-23T07:33:57;10.03;;;4.57;;
4806;SDS011;2417;52.482;13.432;2023-03-23T07:36:35;9.03;;;4.33;;
4806;SDS011;2417;52.482;13.432;2023-03-23T07:39:06;9.50;;;4.50;;
4806;SDS011;2417;52.482;13.432;2023-03-23T07:41:34;13.30;;;4.80;;
4806;SDS011;2417;52.482;13.432;2023-03-23T07:44:13;20.40;;;5.40;;
4806;SDS011;2417;52.482;13.432;2023-03-23T07:46:43;12.93;;;5.07;;
4806;SDS011;2417;52.482;13.432;2023-03-23T07:49:12;30.23;;;5.40;;
4806;SDS011;2417;52.482;13.432;2023-03-23T07:51:45;11.33;;;5.03;;
4806;SDS011;2417;52.482;13.432;2023-03-23T07:54:14;10.30;;;5.57;;
4806;SDS011;2417;52.482;13.432;2023-03-23T07:57:12;11.80;;;5.93;;
4806;SDS011;2417;52.482;13.432;2023-03-23T07:59:45;12.63;;;5.57;;
4806;SDS011;2417;52.482;13.432;2023-03-23T08:02:12;11.97;;;5.37;;
4806;SDS011;2417;52.482;13.432;2023-03-23T08:04:52;11.00;;;5.17;;
4806;SDS011;2417;52.482;13.432;2023-03-23T08:07:22;12.97;;;5.67;;
4806;SDS011;2417;52.482;13.432;2023-03-23T08:10:04;11.07;;;5.17;;
4806;SDS011;2417;52.482;13.432;2023-03-23T08:12:41;13.27;;;5.87;;
4806;SDS011;2417;52.482;13.432;2023-03-23T08:15:27;9.60;;;5.23;;
4806;SDS011;2417;52.482;13.432;2023-03-23T08:18:07;13.30;;;6.27;;
4806;SDS011;2417;52.482;13.432;2023-03-23T08:20:52;14.77;;;6.10;;
4806;SDS011;2417;52.482;13.432;2023-03-23T08:23:30;12.03;;;5.57;;
4806;SDS011;2417;52.482;13.432;2023-03-23T08:26:22;13.03;;;5.47;;
4806;SDS011;2417;52.482;13.432;2023-03-23T08:28:56;13.70;;;5.97;;
4806;SDS011;2417;52.482;13.432;2023-03-23T08:31:57;12.23;;;5.67;;
4806;SDS011;2417;52.482;13.432;2023-03-23T08:34:31;12.60;;;5.07;;
4806;SDS011;2417;52.482;13.432;2023-03-23T08:37:01;10.90;;;5.50;;
4806;SDS011;2417;52.482;13.432;2023-03-23T08:39:50;15.33;;;6.30;;
4806;SDS011;2417;52.482;13.432;2023-03-23T08:42:35;13.30;;;5.73;;
4806;SDS011;2417;52.482;13.432;2023-03-23T08:45:25;13.70;;;5.67;;
4806;SDS011;2417;52.482;13.432;2023-03-23T08:48:24;10.80;;;4.20;;
4806;SDS011;2417;52.482;13.432;2023-03-23T08:51:10;15.27;;;5.83;;
4806;SDS011;2417;52.482;13.432;2023-03-23T08:53:56;14.03;;;5.30;;
4806;SDS011;2417;52.482;13.432;2023-03-23T08:56:41;10.70;;;4.77;;
4806;SDS011;2417;52.482;13.432;2023-03-23T08:59:27;12.30;;;5.90;;
4806;SDS011;2417;52.482;13.432;2023-03-23T09:02:22;14.47;;;6.80;;
4806;SDS011;2417;52.482;13.432;2023-03-23T09:04:55;9.97;;;4.60;;
4806;SDS011;2417;52.482;13.432;2023-03-23T09:08:01;10.80;;;5.03;;
4806;SDS011;2417;52.482;13.432;2023-03-23T09:10:29;9.80;;;4.07;;
4806;SDS011;2417;52.482;13.432;2023-03-23T09:12:56;11.93;;;4.07;;
4806;SDS011;2417;52.482;13.432;2023-03-23T09:15:23;8.83;;;3.53;;
4806;SDS011;2417;52.482;13.432;2023-03-23T09:17:52;8.97;;;3.33;;
4806;SDS011;2417;52.482;13.432;2023-03-23T09:20:20;5.93;;;2.37;;
4806;SDS011;2417;52.482;13.432;2023-03-23T09:22:47;6.20;;;2.67;;
4806;SDS011;2417;52.482;13.432;2023-03-23T09:25:15;6.27;;;2.53;;
4806;SDS011;2417;52.482;13.432;2023-03-23T09:27:44;7.13;;;2.47;;
4806;SDS011;2417;52.482;13.432;2023-03-23T09:30:12;5.80;;;2.67;;
4806;SDS011;2417;52.482;13.432;2023-03-23T09:32:40;5.80;;;2.67;;
4806;SDS011;2417;52.482;13.432;2023-03-23T09:35:10;6.20;;;2.20;;
4806;SDS011;2417;52.482;13.432;2023-03-23T09:37:38;5.20;;;2.33;;
4806;SDS011;2417;52.482;13.432;2023-03-23T09:40:06;4.10;;;1.90;;
4806;SDS011;2417;52.482;13.432;2023-03-23T09:42:36;5.30;;;2.13;;
4806;SDS011;2417;52.482;13.432;2023-03-23T09:45:09;5.40;;;2.10;;
4806;SDS011;2417;52.482;13.432;2023-03-23T09:47:38;5.60;;;2.40;;
4806;SDS011;2417;52.482;13.432;2023-03-23T09:50:11;7.70;;;2.33;;
4806;SDS011;2417;52.482;13.432;2023-03-23T09:52:41;6.40;;;2.20;;
4806;SDS011;2417;52.482;13.432;2023-03-23T09:55:09;5.80;;;2.00;;
4806;SDS011;2417;52.482;13.432;2023-03-23T09:57:39;5.83;;;2.30;;
4806;SDS011;2417;52.482;13.432;2023-03-23T10:00:09;4.17;;;1.90;;
4806;SDS011;2417;52.482;13.432;2023-03-23T10:02:41;5.00;;;1.90;;
4806;SDS011;2417;52.482;13.432;2023-03-23T10:05:19;6.97;;;1.90;;
4806;SDS011;2417;52.482;13.432;2023-03-23T10:07:47;4.90;;;1.70;;
4806;SDS011;2417;52.482;13.432;2023-03-23T10:10:14;5.07;;;2.20;;
4806;SDS011;2417;52.482;13.432;2023-03-23T10:12:42;6.33;;;2.30;;
4806;SDS011;2417;52.482;13.432;2023-03-23T10:15:14;4.10;;;1.57;;
4806;SDS011;2417;52.482;13.432;2023-03-23T10:17:44;8.20;;;2.17;;
4806;SDS011;2417;52.482;13.432;2023-03-23T10:20:21;5.60;;;1.90;;
4806;SDS011;2417;52.482;13.432;2023-03-23T10:22:50;5.33;;;2.07;;
4806;SDS011;2417;52.482;13.432;2023-03-23T10:25:19;5.70;;;1.93;;
4806;SDS011;2417;52.482;13.432;2023-03-23T10:27:49;4.30;;;1.80;;
4806;SDS011;2417;52.482;13.432;2023-03-23T10:30:19;5.90;;;1.83;;
4806;SDS011;2417;52.482;13.432;2023-03-23T10:32:47;4.70;;;1.90;;
4806;SDS011;2417;52.482;13.432;2023-03-23T10:35:17;11.40;;;2.40;;
4806;SDS011;2417;52.482;13.432;2023-03-23T10:37:48;4.00;;;1.60;;
4806;SDS011;2417;52.482;13.432;2023-03-23T10:40:16;13.10;;;6.50;;
4806;SDS011;2417;52.482;13.432;2023-03-23T10:42:44;12.93;;;5.70;;
4806;SDS011;2417;52.482;13.432;2023-03-23T10:45:13;7.27;;;2.10;;
4806;SDS011;2417;52.482;13.432;2023-03-23T10:47:44;6.27;;;3.10;;
4806;SDS011;2417;52.482;13.432;2023-03-23T10:50:12;9.20;;;4.03;;
4806;SDS011;2417;52.482;13.432;2023-03-23T10:52:41;9.10;;;3.97;;
4806;SDS011;2417;52.482;13.432;2023-03-23T10:55:11;10.00;;;3.27;;
4806;SDS011;2417;52.482;13.432;2023-03-23T10:57:39;8.33;;;4.23;;
4806;SDS011;2417;52.482;13.432;2023-03-23T11:00:15;7.40;;;3.17;;
4806;SDS011;2417;52.482;13.432;2023-03-23T11:02:44;7.77;;;2.90;;
4806;SDS011;2417;52.482;13.432;2023-03-23T11:05:15;10.67;;;4.70;;
4806;SDS011;2417;52.482;13.432;2023-03-23T11:07:47;8.07;;;3.17;;
4806;SDS011;2417;52.482;13.432;2023-03-23T11:10:20;8.47;;;2.87;;
4806;SDS011;2417;52.482;13.432;2023-03-23T11:12:47;7.13;;;3.20;;
4806;SDS011;2417;52.482;13.432;2023-03-23T11:15:21;7.23;;;3.50;;
4806;SDS011;2417;52.482;13.432;2023-03-23T11:17:54;9.10;;;3.63;;
4806;SDS011;2417;52.482;13.432;2023-03-23T11:20:22;7.03;;;3.40;;
4806;SDS011;2417;52.482;13.432;2023-03-23T11:22:49;5.63;;;2.60;;
4806;SDS011;2417;52.482;13.432;2023-03-23T11:25:17;9.40;;;4.40;;
4806;SDS011;2417;52.482;13.432;2023-03-23T11:27:44;4.90;;;2.20;;
4806;SDS011;2417;52.482;13.432;2023-03-23T11:30:18;6.67;;;3.07;;
4806;SDS011;2417;52.482;13.432;2023-03-23T11:32:46;5.60;;;2.37;;
4806;SDS011;2417;52.482;13.432;2023-03-23T11:35:16;9.60;;;3.30;;
4806;SDS011;2417;52.482;13.432;2023-03-23T11:37:45;7.50;;;2.80;;
4806;SDS011;2417;52.482;13.432;2023-03-23T11:40:14;10.30;;;3.83;;
4806;SDS011;2417;52.482;13.432;2023-03-23T11:42:46;11.00;;;4.17;;
4806;SDS011;2417;52.482;13.432;2023-03-23T11:45:15;10.93;;;4.23;;
4806;SDS011;2417;52.482;13.432;2023-03-23T11:47:45;12.13;;;2.93;;
4806;SDS011;2417;52.482;13.432;2023-03-23T11:50:15;11.93;;;3.80;;
4806;SDS011;2417;52.482;13.432;2023-03-23T11:52:44;11.90;;;6.00;;
4806;SDS011;2417;52.482;13.432;2023-03-23T11:55:14;8.60;;;3.40;;
4806;SDS011;2417;52.482;13.432;2023-03-23T11:57:42;10.53;;;4.43;;
4806;SDS011;2417;52.482;13.432;2023-03-23T12:00:18;6.87;;;2.30;;
4806;SDS011;2417;52.482;13.432;2023-03-23T12:05:52;12.57;;;4.07;;
4806;SDS011;2417;52.482;13.432;2023-03-23T12:11:07;10.43;;;5.17;;
4806;SDS011;2417;52.482;13.432;2023-03-23T12:13:39;9.20;;;2.83;;
4806;SDS011;2417;52.482;13.432;2023-03-23T12:16:19;9.00;;;3.57;;
4806;SDS011;2417;52.482;13.432;2023-03-23T12:18:50;10.13;;;4.77;;
4806;SDS011;2417;52.482;13.432;2023-03-23T12:21:22;6.63;;;2.73;;
4806;SDS011;2417;52.482;13.432;2023-03-23T12:23:55;8.60;;;2.90;;
4806;SDS011;2417;52.482;13.432;2023-03-23T12:26:23;14.83;;;3.73;;
4806;SDS011;2417;52.482;13.432;2023-03-23T12:28:58;6.87;;;2.30;;
4806;SDS011;2417;52.482;13.432;2023-03-23T12:31:30;5.77;;;2.03;;
4806;SDS011;2417;52.482;13.432;2023-03-23T12:34:01;6.60;;;2.53;;
4806;SDS011;2417;52.482;13.432;2023-03-23T12:36:35;6.27;;;2.73;;
4806;SDS011;2417;52.482;13.432;2023-03-23T12:41:53;7.73;;;3.30;;
4806;SDS011;2417;52.482;13.432;2023-03-23T12:44:21;6.33;;;2.40;;
4806;SDS011;2417;52.482;13.432;2023-03-23T12:47:03;7.50;;;2.77;;
4806;SDS011;2417;52.482;13.432;2023-03-23T12:49:35;6.10;;;2.60;;
4806;SDS011;2417;52.482;13.432;2023-03-23T12:52:04;5.90;;;2.30;;
4806;SDS011;2417;52.482;13.432;2023-03-23T12:54:38;6.17;;;2.50;;
4806;SDS011;2417;52.482;13.432;2023-03-23T12:57:07;6.53;;;2.70;;
4806;SDS011;2417;52.482;13.432;2023-03-23T12:59:36;5.77;;;2.57;;
4806;SDS011;2417;52.482;13.432;2023-03-23T13:02:10;8.10;;;2.50;;
4806;SDS011;2417;52.482;13.432;2023-03-23T13:04:40;7.20;;;3.07;;
4806;SDS011;2417;52.482;13.432;2023-03-23T13:07:17;5.73;;;2.40;;
4806;SDS011;2417;52.482;13.432;2023-03-23T13:09:46;5.73;;;2.20;;
4806;SDS011;2417;52.482;13.432;2023-03-23T13:12:15;8.23;;;3.00;;
4806;SDS011;2417;52.482;13.432;2023-03-23T13:14:45;8.07;;;2.57;;
4806;SDS011;2417;52.482;13.432;2023-03-23T13:17:22;5.50;;;2.43;;
4806;SDS011;2417;52.482;13.432;2023-03-23T13:19:56;7.03;;;2.10;;
4806;SDS011;2417;52.482;13.432;2023-03-23T13:22:26;5.20;;;2.07;;
4806;SDS011;2417;52.482;13.432;2023-03-23T13:24:58;9.43;;;2.77;;
4806;SDS011;2417;52.482;13.432;2023-03-23T13:27:27;6.70;;;2.53;;
4806;SDS011;2417;52.482;13.432;2023-03-23T13:29:55;6.47;;;2.17;;
4806;SDS011;2417;52.482;13.432;2023-03-23T13:32:33;9.40;;;2.60;;
4806;SDS011;2417;52.482;13.432;2023-03-23T13:35:02;6.90;;;2.27;;
4806;SDS011;2417;52.482;13.432;2023-03-23T13:37:29;6.97;;;2.53;;
4806;SDS011;2417;52.482;13.432;2023-03-23T13:39:57;8.27;;;2.20;;
4806;SDS011;2417;52.482;13.432;2023-03-23T13:42:24;8.10;;;2.00;;
4806;SDS011;2417;52.482;13.432;2023-03-23T13:44:56;5.70;;;2.23;;
4806;SDS011;2417;52.482;13.432;2023-03-23T13:47:27;6.03;;;2.00;;
4806;SDS011;2417;52.482;13.432;2023-03-23T13:49:57;9.70;;;1.90;;
4806;SDS011;2417;52.482;13.432;2023-03-23T13:52:25;7.63;;;2.10;;
4806;SDS011;2417;52.482;13.432;2023-03-23T13:55:16;6.17;;;2.03;;
4806;SDS011;2417;52.482;13.432;2023-03-23T13:57:49;6.10;;;1.80;;
4806;SDS011;2417;52.482;13.432;2023-03-23T14:00:33;8.27;;;2.10;;
4806;SDS011;2417;52.482;13.432;2023-03-23T14:03:05;7.77;;;2.10;;
4806;SDS011;2417;52.482;13.432;2023-03-23T14:05:37;4.90;;;1.57;;
4806;SDS011;2417;52.482;13.432;2023-03-23T14:08:11;6.20;;;2.20;;
4806;SDS011;2417;52.482;13.432;2023-03-23T14:10:39;6.10;;;1.70;;
4806;SDS011;2417;52.482;13.432;2023-03-23T14:13:11;6.83;;;1.73;;
4806;SDS011;2417;52.482;13.432;2023-03-23T14:15:42;7.73;;;2.60;;
4806;SDS011;2417;52.482;13.432;2023-03-23T14:18:12;6.90;;;1.50;;
4806;SDS011;2417;52.482;13.432;2023-03-23T14:20:40;8.70;;;1.90;;
4806;SDS011;2417;52.482;13.432;2023-03-23T14:23:12;7.67;;;1.77;;
4806;SDS011;2417;52.482;13.432;2023-03-23T14:25:41;7.20;;;3.17;;
4806;SDS011;2417;52.482;13.432;2023-03-23T14:28:15;6.30;;;2.20;;
4806;SDS011;2417;52.482;13.432;2023-03-23T14:30:43;8.10;;;2.33;;
4806;SDS011;2417;52.482;13.432;2023-03-23T14:33:10;8.33;;;2.60;;
4806;SDS011;2417;52.482;13.432;2023-03-23T14:35:40;8.07;;;2.70;;
4806;SDS011;2417;52.482;13.432;2023-03-23T14:38:10;7.07;;;2.10;;
4806;SDS011;2417;52.482;13.432;2023-03-23T14:40:39;8.43;;;2.27;;
4806;SDS011;2417;52.482;13.432;2023-03-23T14:43:07;5.63;;;2.00;;
4806;SDS011;2417;52.482;13.432;2023-03-23T14:45:35;6.03;;;2.10;;
4806;SDS011;2417;52.482;13.432;2023-03-23T14:48:02;6.53;;;2.03;;
4806;SDS011;2417;52.482;13.432;2023-03-23T14:50:30;5.77;;;1.80;;
4806;SDS011;2417;52.482;13.432;2023-03-23T14:53:00;10.20;;;2.53;;
4806;SDS011;2417;52.482;13.432;2023-03-23T14:55:30;18.83;;;3.03;;
4806;SDS011;2417;52.482;13.432;2023-03-23T14:58:05;6.80;;;2.70;;
4806;SDS011;2417;52.482;13.432;2023-03-23T15:00:33;8.73;;;2.80;;
4806;SDS011;2417;52.482;13.432;2023-03-23T15:03:01;7.97;;;2.63;;
4806;SDS011;2417;52.482;13.432;2023-03-23T15:05:31;6.50;;;3.00;;
4806;SDS011;2417;52.482;13.432;2023-03-23T15:08:02;10.67;;;2.47;;
4806;SDS011;2417;52.482;13.432;2023-03-23T15:10:31;9.70;;;2.60;;
4806;SDS011;2417;52.482;13.432;2023-03-23T15:12:59;5.50;;;2.33;;
4806;SDS011;2417;52.482;13.432;2023-03-23T15:15:26;8.57;;;2.80;;
4806;SDS011;2417;52.482;13.432;2023-03-23T15:17:55;11.63;;;2.87;;
4806;SDS011;2417;52.482;13.432;2023-03-23T15:20:23;8.87;;;3.03;;
4806;SDS011;2417;52.482;13.432;2023-03-23T15:22:51;12.80;;;2.87;;
4806;SDS011;2417;52.482;13.432;2023-03-23T15:25:19;7.20;;;2.60;;
4806;SDS011;2417;52.482;13.432;2023-03-23T15:27:50;15.90;;;2.47;;
4806;SDS011;2417;52.482;13.432;2023-03-23T15:30:28;9.63;;;2.63;;
4806;SDS011;2417;52.482;13.432;2023-03-23T15:33:05;7.70;;;1.97;;
4806;SDS011;2417;52.482;13.432;2023-03-23T15:35:33;7.77;;;2.37;;
4806;SDS011;2417;52.482;13.432;2023-03-23T15:38:01;5.93;;;2.00;;